sensor_id;sensor_type;location;lat;lon;timestamp;P1;durP1;ratioP1;P2;durP2;ratioP2
4049;SDS011;2039;50.894;6.888;2023-02-28T00:01:05;69.27;;;6.40;;
4049;SDS011;2039;50.894;6.888;2023-02-28T00:03:31;66.77;;;6.77;;
4049;SDS011;2039;50.894;6.888;2023-02-28T00:06:02;70.05;;;6.78;;
4049;SDS011;2039;50.894;6.888;2023-02-28T00:08:29;70.45;;;7.07;;
4049;SDS011;2039;50.894;6.888;2023-02-28T00:10:54;68.30;;;6.57;;
4049;SDS011;2039;50.894;6.888;2023-02-28T00:13:20;68.40;;;6.13;;
4049;SDS011;2039;50.894;6.888;2023-02-28T00:15:46;67.07;;;6.63;;
4049;SDS011;2039;50.894;6.888;2023-02-28T00:18:12;66.83;;;6.10;;
4049;SDS011;2039;50.894;6.888;2023-02-28T00:20:38;67.00;;;6.45;;
4049;SDS011;2039;50.894;6.888;2023-02-28T00:23:07;69.35;;;7.07;;
4049;SDS011;2039;50.894;6.888;2023-02-28T00:25:33;69.10;;;6.38;;
4049;SDS011;2039;50.894;6.888;2023-02-28T00:27:58;66.70;;;6.67;;
4049;SDS011;2039;50.894;6.888;2023-02-28T00:30:24;65.17;;;5.83;;
4049;SDS011;2039;50.894;6.888;2023-02-28T00:32:50;71.80;;;6.70;;
4049;SDS011;2039;50.894;6.888;2023-02-28T00:35:16;72.47;;;6.80;;
4049;SDS011;2039;50.894;6.888;2023-02-28T00:37:42;67.93;;;7.40;;
4049;SDS011;2039;50.894;6.888;2023-02-28T00:40:07;68.33;;;6.63;;
4049;SDS011;2039;50.894;6.888;2023-02-28T00:42:35;66.57;;;6.60;;
4049;SDS011;2039;50.894;6.888;2023-02-28T00:45:01;69.13;;;6.20;;
4049;SDS011;2039;50.894;6.888;2023-02-28T00:47:29;67.00;;;6.72;;
4049;SDS011;2039;50.894;6.888;2023-02-28T00:49:55;68.80;;;7.00;;
4049;SDS011;2039;50.894;6.888;2023-02-28T00:52:21;70.77;;;7.20;;
4049;SDS011;2039;50.894;6.888;2023-02-28T00:54:46;66.60;;;6.47;;
4049;SDS011;2039;50.894;6.888;2023-02-28T00:57:12;68.63;;;7.10;;
4049;SDS011;2039;50.894;6.888;2023-02-28T00:59:38;68.40;;;6.83;;
4049;SDS011;2039;50.894;6.888;2023-02-28T01:02:03;70.57;;;6.90;;
4049;SDS011;2039;50.894;6.888;2023-02-28T01:04:29;66.83;;;7.00;;
4049;SDS011;2039;50.894;6.888;2023-02-28T01:06:55;66.77;;;6.10;;
4049;SDS011;2039;50.894;6.888;2023-02-28T01:09:23;68.20;;;6.60;;
4049;SDS011;2039;50.894;6.888;2023-02-28T01:11:49;65.70;;;5.83;;
4049;SDS011;2039;50.894;6.888;2023-02-28T01:14:15;68.80;;;6.40;;
4049;SDS011;2039;50.894;6.888;2023-02-28T01:16:42;67.00;;;6.40;;
4049;SDS011;2039;50.894;6.888;2023-02-28T01:19:08;68.72;;;6.53;;
4049;SDS011;2039;50.894;6.888;2023-02-28T01:21:34;65.23;;;6.00;;
4049;SDS011;2039;50.894;6.888;2023-02-28T01:24:01;65.80;;;5.60;;
4049;SDS011;2039;50.894;6.888;2023-02-28T01:26:28;66.32;;;6.60;;
4049;SDS011;2039;50.894;6.888;2023-02-28T01:28:54;66.50;;;6.20;;
4049;SDS011;2039;50.894;6.888;2023-02-28T01:31:20;66.27;;;6.60;;
4049;SDS011;2039;50.894;6.888;2023-02-28T01:33:47;66.63;;;6.40;;
4049;SDS011;2039;50.894;6.888;2023-02-28T01:36:17;66.15;;;5.95;;
4049;SDS011;2039;50.894;6.888;2023-02-28T01:38:45;68.07;;;6.88;;
4049;SDS011;2039;50.894;6.888;2023-02-28T01:41:16;68.10;;;7.18;;
4049;SDS011;2039;50.894;6.888;2023-02-28T01:46:15;69.67;;;7.20;;
4049;SDS011;2039;50.894;6.888;2023-02-28T01:48:42;66.47;;;6.30;;
4049;SDS011;2039;50.894;6.888;2023-02-28T01:51:15;66.45;;;6.80;;
4049;SDS011;2039;50.894;6.888;2023-02-28T01:53:46;67.53;;;6.90;;
4049;SDS011;2039;50.894;6.888;2023-02-28T01:56:17;66.65;;;6.70;;
4049;SDS011;2039;50.894;6.888;2023-02-28T01:58:50;65.38;;;5.75;;
4049;SDS011;2039;50.894;6.888;2023-02-28T02:01:18;68.70;;;7.13;;
4049;SDS011;2039;50.894;6.888;2023-02-28T02:03:51;66.75;;;6.63;;
4049;SDS011;2039;50.894;6.888;2023-02-28T02:06:24;68.07;;;6.70;;
4049;SDS011;2039;50.894;6.888;2023-02-28T02:08:54;67.82;;;6.53;;
4049;SDS011;2039;50.894;6.888;2023-02-28T02:11:20;66.45;;;6.50;;
4049;SDS011;2039;50.894;6.888;2023-02-28T02:19:54;66.80;;;6.75;;
4049;SDS011;2039;50.894;6.888;2023-02-28T02:23:46;67.05;;;6.20;;
4049;SDS011;2039;50.894;6.888;2023-02-28T02:25:42;68.55;;;7.30;;
4049;SDS011;2039;50.894;6.888;2023-02-28T02:28:29;66.97;;;6.75;;
4049;SDS011;2039;50.894;6.888;2023-02-28T02:36:45;69.35;;;6.40;;
4049;SDS011;2039;50.894;6.888;2023-02-28T02:39:22;67.90;;;5.50;;
4049;SDS011;2039;50.894;6.888;2023-02-28T02:41:54;69.13;;;7.38;;
4049;SDS011;2039;50.894;6.888;2023-02-28T02:44:22;66.60;;;5.80;;
4049;SDS011;2039;50.894;6.888;2023-02-28T02:46:54;67.63;;;6.93;;
4049;SDS011;2039;50.894;6.888;2023-02-28T02:49:26;67.03;;;6.78;;
4049;SDS011;2039;50.894;6.888;2023-02-28T02:51:56;71.03;;;7.53;;
4049;SDS011;2039;50.894;6.888;2023-02-28T02:54:30;66.53;;;6.45;;
4049;SDS011;2039;50.894;6.888;2023-02-28T02:57:12;66.90;;;7.00;;
4049;SDS011;2039;50.894;6.888;2023-02-28T02:59:59;66.82;;;6.40;;
4049;SDS011;2039;50.894;6.888;2023-02-28T03:02:26;67.70;;;6.90;;
4049;SDS011;2039;50.894;6.888;2023-02-28T03:04:59;66.97;;;5.82;;
4049;SDS011;2039;50.894;6.888;2023-02-28T03:07:46;71.05;;;6.13;;
4049;SDS011;2039;50.894;6.888;2023-02-28T03:12:59;68.10;;;5.68;;
4049;SDS011;2039;50.894;6.888;2023-02-28T03:18:21;67.22;;;5.50;;
4049;SDS011;2039;50.894;6.888;2023-02-28T03:21:02;68.05;;;6.50;;
4049;SDS011;2039;50.894;6.888;2023-02-28T03:24:03;67.65;;;5.97;;
4049;SDS011;2039;50.894;6.888;2023-02-28T03:26:56;67.10;;;6.20;;
4049;SDS011;2039;50.894;6.888;2023-02-28T03:32:29;66.28;;;5.57;;
4049;SDS011;2039;50.894;6.888;2023-02-28T03:37:58;67.55;;;6.30;;
4049;SDS011;2039;50.894;6.888;2023-02-28T03:40:30;66.78;;;5.97;;
4049;SDS011;2039;50.894;6.888;2023-02-28T03:43:01;65.60;;;6.05;;
4049;SDS011;2039;50.894;6.888;2023-02-28T03:45:33;65.97;;;6.05;;
4049;SDS011;2039;50.894;6.888;2023-02-28T03:50:44;68.55;;;5.93;;
4049;SDS011;2039;50.894;6.888;2023-02-28T03:55:46;66.85;;;6.05;;
4049;SDS011;2039;50.894;6.888;2023-02-28T04:01:08;65.88;;;5.63;;
4049;SDS011;2039;50.894;6.888;2023-02-28T04:03:50;65.40;;;5.72;;
4049;SDS011;2039;50.894;6.888;2023-02-28T04:06:18;66.10;;;6.00;;
4049;SDS011;2039;50.894;6.888;2023-02-28T04:08:45;66.95;;;5.85;;
4049;SDS011;2039;50.894;6.888;2023-02-28T04:13:51;68.47;;;6.32;;
4049;SDS011;2039;50.894;6.888;2023-02-28T04:16:17;66.72;;;5.90;;
4049;SDS011;2039;50.894;6.888;2023-02-28T04:18:42;66.40;;;6.90;;
4049;SDS011;2039;50.894;6.888;2023-02-28T04:21:08;69.87;;;6.20;;
4049;SDS011;2039;50.894;6.888;2023-02-28T04:23:35;67.60;;;5.95;;
4049;SDS011;2039;50.894;6.888;2023-02-28T04:26:01;65.40;;;5.93;;
4049;SDS011;2039;50.894;6.888;2023-02-28T04:28:26;65.87;;;5.57;;
4049;SDS011;2039;50.894;6.888;2023-02-28T04:31:10;66.90;;;6.40;;
4049;SDS011;2039;50.894;6.888;2023-02-28T04:33:36;66.55;;;6.38;;
4049;SDS011;2039;50.894;6.888;2023-02-28T04:36:02;67.03;;;5.90;;
4049;SDS011;2039;50.894;6.888;2023-02-28T04:38:31;66.57;;;6.35;;
4049;SDS011;2039;50.894;6.888;2023-02-28T04:40:59;68.05;;;6.65;;
4049;SDS011;2039;50.894;6.888;2023-02-28T04:43:28;66.43;;;6.30;;
4049;SDS011;2039;50.894;6.888;2023-02-28T04:45:54;67.00;;;6.88;;
4049;SDS011;2039;50.894;6.888;2023-02-28T04:48:31;67.53;;;6.70;;
4049;SDS011;2039;50.894;6.888;2023-02-28T04:51:02;67.07;;;6.57;;
4049;SDS011;2039;50.894;6.888;2023-02-28T04:53:29;67.50;;;6.50;;
4049;SDS011;2039;50.894;6.888;2023-02-28T04:55:56;68.60;;;6.93;;
4049;SDS011;2039;50.894;6.888;2023-02-28T04:58:22;67.43;;;6.50;;
4049;SDS011;2039;50.894;6.888;2023-02-28T05:00:51;65.30;;;5.95;;
4049;SDS011;2039;50.894;6.888;2023-02-28T05:03:18;69.47;;;6.28;;
4049;SDS011;2039;50.894;6.888;2023-02-28T05:05:45;67.43;;;6.40;;
4049;SDS011;2039;50.894;6.888;2023-02-28T05:08:11;67.05;;;6.95;;
4049;SDS011;2039;50.894;6.888;2023-02-28T05:10:37;67.50;;;6.83;;
4049;SDS011;2039;50.894;6.888;2023-02-28T05:13:03;65.90;;;6.30;;
4049;SDS011;2039;50.894;6.888;2023-02-28T05:15:29;70.20;;;7.00;;
4049;SDS011;2039;50.894;6.888;2023-02-28T05:17:55;75.80;;;7.30;;
4049;SDS011;2039;50.894;6.888;2023-02-28T05:20:20;66.20;;;7.17;;
4049;SDS011;2039;50.894;6.888;2023-02-28T05:22:46;67.10;;;7.13;;
4049;SDS011;2039;50.894;6.888;2023-02-28T05:25:15;67.40;;;6.80;;
4049;SDS011;2039;50.894;6.888;2023-02-28T05:27:42;68.82;;;8.13;;
4049;SDS011;2039;50.894;6.888;2023-02-28T05:30:28;69.25;;;7.65;;
4049;SDS011;2039;50.894;6.888;2023-02-28T05:33:11;66.78;;;6.90;;
4049;SDS011;2039;50.894;6.888;2023-02-28T05:36:13;66.88;;;6.43;;
4049;SDS011;2039;50.894;6.888;2023-02-28T05:38:48;67.60;;;6.63;;
4049;SDS011;2039;50.894;6.888;2023-02-28T05:44:52;66.10;;;6.35;;
4049;SDS011;2039;50.894;6.888;2023-02-28T05:54:53;66.07;;;6.80;;
4049;SDS011;2039;50.894;6.888;2023-02-28T05:57:49;67.45;;;6.65;;
4049;SDS011;2039;50.894;6.888;2023-02-28T06:06:23;66.80;;;6.90;;
4049;SDS011;2039;50.894;6.888;2023-02-28T06:09:02;69.15;;;7.55;;
4049;SDS011;2039;50.894;6.888;2023-02-28T06:11:44;66.47;;;6.95;;
4049;SDS011;2039;50.894;6.888;2023-02-28T06:17:05;69.07;;;6.82;;
4049;SDS011;2039;50.894;6.888;2023-02-28T06:19:46;68.07;;;6.93;;
4049;SDS011;2039;50.894;6.888;2023-02-28T06:23:04;66.78;;;7.20;;
4049;SDS011;2039;50.894;6.888;2023-02-28T06:25:58;68.45;;;6.95;;
4049;SDS011;2039;50.894;6.888;2023-02-28T06:28:34;68.55;;;6.95;;
4049;SDS011;2039;50.894;6.888;2023-02-28T06:31:13;68.68;;;7.20;;
4049;SDS011;2039;50.894;6.888;2023-02-28T06:33:53;73.47;;;6.60;;
4049;SDS011;2039;50.894;6.888;2023-02-28T06:36:30;67.80;;;6.93;;
4049;SDS011;2039;50.894;6.888;2023-02-28T06:39:09;67.47;;;7.05;;
4049;SDS011;2039;50.894;6.888;2023-02-28T06:41:49;67.00;;;6.55;;
4049;SDS011;2039;50.894;6.888;2023-02-28T06:44:17;66.50;;;6.95;;
4049;SDS011;2039;50.894;6.888;2023-02-28T06:46:51;68.05;;;7.00;;
4049;SDS011;2039;50.894;6.888;2023-02-28T06:49:51;66.45;;;6.68;;
4049;SDS011;2039;50.894;6.888;2023-02-28T06:52:17;66.43;;;6.47;;
4049;SDS011;2039;50.894;6.888;2023-02-28T06:54:43;67.07;;;6.80;;
4049;SDS011;2039;50.894;6.888;2023-02-28T06:57:24;66.68;;;6.40;;
4049;SDS011;2039;50.894;6.888;2023-02-28T07:00:03;67.30;;;5.88;;
4049;SDS011;2039;50.894;6.888;2023-02-28T07:02:33;66.82;;;6.22;;
4049;SDS011;2039;50.894;6.888;2023-02-28T07:05:00;67.05;;;7.15;;
4049;SDS011;2039;50.894;6.888;2023-02-28T07:07:26;67.17;;;6.43;;
4049;SDS011;2039;50.894;6.888;2023-02-28T07:09:54;68.60;;;6.80;;
4049;SDS011;2039;50.894;6.888;2023-02-28T07:12:21;69.32;;;7.40;;
4049;SDS011;2039;50.894;6.888;2023-02-28T07:14:47;68.20;;;7.67;;
4049;SDS011;2039;50.894;6.888;2023-02-28T07:17:12;72.20;;;6.93;;
4049;SDS011;2039;50.894;6.888;2023-02-28T07:19:39;67.70;;;7.80;;
4049;SDS011;2039;50.894;6.888;2023-02-28T07:22:04;68.28;;;6.80;;
4049;SDS011;2039;50.894;6.888;2023-02-28T07:24:30;67.90;;;7.57;;
4049;SDS011;2039;50.894;6.888;2023-02-28T07:26:59;69.30;;;7.10;;
4049;SDS011;2039;50.894;6.888;2023-02-28T07:29:25;66.57;;;6.47;;
4049;SDS011;2039;50.894;6.888;2023-02-28T07:31:51;66.20;;;6.47;;
4049;SDS011;2039;50.894;6.888;2023-02-28T07:34:18;66.80;;;6.90;;
4049;SDS011;2039;50.894;6.888;2023-02-28T07:40:04;67.70;;;7.45;;
4049;SDS011;2039;50.894;6.888;2023-02-28T07:42:33;68.95;;;7.07;;
4049;SDS011;2039;50.894;6.888;2023-02-28T07:45:08;67.70;;;7.18;;
4049;SDS011;2039;50.894;6.888;2023-02-28T07:47:39;68.80;;;8.32;;
4049;SDS011;2039;50.894;6.888;2023-02-28T07:50:10;67.10;;;7.35;;
4049;SDS011;2039;50.894;6.888;2023-02-28T07:52:40;68.25;;;7.32;;
4049;SDS011;2039;50.894;6.888;2023-02-28T07:55:07;66.78;;;6.78;;
4049;SDS011;2039;50.894;6.888;2023-02-28T07:57:36;70.22;;;7.03;;
4049;SDS011;2039;50.894;6.888;2023-02-28T08:00:06;68.40;;;8.43;;
4049;SDS011;2039;50.894;6.888;2023-02-28T08:02:34;69.55;;;8.15;;
4049;SDS011;2039;50.894;6.888;2023-02-28T08:05:00;69.20;;;7.22;;
4049;SDS011;2039;50.894;6.888;2023-02-28T08:07:26;68.17;;;7.07;;
4049;SDS011;2039;50.894;6.888;2023-02-28T08:09:51;67.47;;;7.60;;
4049;SDS011;2039;50.894;6.888;2023-02-28T08:12:17;71.50;;;7.70;;
4049;SDS011;2039;50.894;6.888;2023-02-28T08:14:43;70.87;;;6.20;;
4049;SDS011;2039;50.894;6.888;2023-02-28T08:17:09;67.57;;;7.53;;
4049;SDS011;2039;50.894;6.888;2023-02-28T08:19:35;68.53;;;7.25;;
4049;SDS011;2039;50.894;6.888;2023-02-28T08:22:04;69.30;;;8.37;;
4049;SDS011;2039;50.894;6.888;2023-02-28T08:24:30;67.43;;;6.50;;
4049;SDS011;2039;50.894;6.888;2023-02-28T08:26:55;68.67;;;6.60;;
4049;SDS011;2039;50.894;6.888;2023-02-28T08:29:21;66.72;;;6.47;;
4049;SDS011;2039;50.894;6.888;2023-02-28T08:31:50;67.47;;;7.05;;
4049;SDS011;2039;50.894;6.888;2023-02-28T08:34:16;74.35;;;7.20;;
4049;SDS011;2039;50.894;6.888;2023-02-28T08:36:42;65.72;;;6.10;;
4049;SDS011;2039;50.894;6.888;2023-02-28T08:39:09;69.80;;;5.90;;
4049;SDS011;2039;50.894;6.888;2023-02-28T08:41:35;66.50;;;6.70;;
4049;SDS011;2039;50.894;6.888;2023-02-28T08:44:01;66.20;;;6.30;;
4049;SDS011;2039;50.894;6.888;2023-02-28T08:46:27;66.67;;;6.53;;
4049;SDS011;2039;50.894;6.888;2023-02-28T08:48:53;66.47;;;6.13;;
4049;SDS011;2039;50.894;6.888;2023-02-28T08:51:20;67.05;;;6.30;;
4049;SDS011;2039;50.894;6.888;2023-02-28T08:53:54;66.68;;;6.28;;
4049;SDS011;2039;50.894;6.888;2023-02-28T08:56:22;66.25;;;5.65;;
4049;SDS011;2039;50.894;6.888;2023-02-28T08:58:48;65.87;;;6.10;;
4049;SDS011;2039;50.894;6.888;2023-02-28T09:01:16;66.50;;;5.72;;
4049;SDS011;2039;50.894;6.888;2023-02-28T09:03:46;66.00;;;5.38;;
4049;SDS011;2039;50.894;6.888;2023-02-28T09:06:14;65.57;;;5.95;;
4049;SDS011;2039;50.894;6.888;2023-02-28T09:08:41;68.28;;;7.18;;
4049;SDS011;2039;50.894;6.888;2023-02-28T09:11:10;64.97;;;5.70;;
4049;SDS011;2039;50.894;6.888;2023-02-28T09:13:36;66.43;;;5.97;;
4049;SDS011;2039;50.894;6.888;2023-02-28T09:16:03;65.30;;;5.35;;
4049;SDS011;2039;50.894;6.888;2023-02-28T09:18:30;66.05;;;5.70;;
4049;SDS011;2039;50.894;6.888;2023-02-28T09:20:56;64.97;;;5.50;;
4049;SDS011;2039;50.894;6.888;2023-02-28T09:23:23;64.50;;;5.50;;
4049;SDS011;2039;50.894;6.888;2023-02-28T09:25:53;65.43;;;5.47;;
4049;SDS011;2039;50.894;6.888;2023-02-28T09:28:20;66.72;;;5.55;;
4049;SDS011;2039;50.894;6.888;2023-02-28T09:30:47;66.03;;;6.82;;
4049;SDS011;2039;50.894;6.888;2023-02-28T09:33:15;65.18;;;5.50;;
4049;SDS011;2039;50.894;6.888;2023-02-28T09:35:41;66.57;;;6.30;;
4049;SDS011;2039;50.894;6.888;2023-02-28T09:38:08;64.60;;;4.50;;
4049;SDS011;2039;50.894;6.888;2023-02-28T09:40:39;69.25;;;6.43;;
4049;SDS011;2039;50.894;6.888;2023-02-28T09:43:14;67.00;;;4.93;;
4049;SDS011;2039;50.894;6.888;2023-02-28T09:45:42;65.82;;;5.53;;
4049;SDS011;2039;50.894;6.888;2023-02-28T09:48:18;65.68;;;5.07;;
4049;SDS011;2039;50.894;6.888;2023-02-28T09:51:12;65.93;;;5.15;;
4049;SDS011;2039;50.894;6.888;2023-02-28T09:57:10;66.07;;;5.80;;
4049;SDS011;2039;50.894;6.888;2023-02-28T10:11:52;66.40;;;5.63;;
4049;SDS011;2039;50.894;6.888;2023-02-28T10:14:38;67.35;;;5.80;;
4049;SDS011;2039;50.894;6.888;2023-02-28T10:17:40;66.13;;;5.53;;
4049;SDS011;2039;50.894;6.888;2023-02-28T10:20:24;65.65;;;5.95;;
4049;SDS011;2039;50.894;6.888;2023-02-28T10:23:09;66.50;;;6.20;;
4049;SDS011;2039;50.894;6.888;2023-02-28T10:26:12;66.55;;;6.10;;
4049;SDS011;2039;50.894;6.888;2023-02-28T10:28:53;67.88;;;6.25;;
4049;SDS011;2039;50.894;6.888;2023-02-28T10:31:34;67.05;;;6.55;;
4049;SDS011;2039;50.894;6.888;2023-02-28T10:37:33;66.40;;;5.28;;
4049;SDS011;2039;50.894;6.888;2023-02-28T10:40:04;67.30;;;6.10;;
4049;SDS011;2039;50.894;6.888;2023-02-28T10:42:33;65.05;;;5.18;;
4049;SDS011;2039;50.894;6.888;2023-02-28T10:45:17;66.97;;;5.32;;
4049;SDS011;2039;50.894;6.888;2023-02-28T10:50:55;66.40;;;5.40;;
4049;SDS011;2039;50.894;6.888;2023-02-28T10:55:56;67.07;;;5.07;;
4049;SDS011;2039;50.894;6.888;2023-02-28T11:01:47;66.35;;;5.55;;
4049;SDS011;2039;50.894;6.888;2023-02-28T11:07:27;66.97;;;5.53;;
4049;SDS011;2039;50.894;6.888;2023-02-28T11:10:01;66.45;;;5.15;;
4049;SDS011;2039;50.894;6.888;2023-02-28T11:12:36;64.97;;;4.88;;
4049;SDS011;2039;50.894;6.888;2023-02-28T11:15:27;66.75;;;5.30;;
4049;SDS011;2039;50.894;6.888;2023-02-28T11:18:20;66.18;;;4.45;;
4049;SDS011;2039;50.894;6.888;2023-02-28T11:20:59;64.90;;;4.65;;
4049;SDS011;2039;50.894;6.888;2023-02-28T11:23:28;66.15;;;4.97;;
4049;SDS011;2039;50.894;6.888;2023-02-28T11:26:01;65.03;;;4.82;;
4049;SDS011;2039;50.894;6.888;2023-02-28T11:33:48;66.07;;;5.05;;
4049;SDS011;2039;50.894;6.888;2023-02-28T11:36:19;65.38;;;5.07;;
4049;SDS011;2039;50.894;6.888;2023-02-28T11:39:07;66.38;;;5.18;;
4049;SDS011;2039;50.894;6.888;2023-02-28T11:47:41;65.63;;;5.03;;
4049;SDS011;2039;50.894;6.888;2023-02-28T11:55:45;68.20;;;5.28;;
4049;SDS011;2039;50.894;6.888;2023-02-28T12:01:28;65.80;;;5.80;;
4049;SDS011;2039;50.894;6.888;2023-02-28T12:07:00;65.00;;;5.50;;
4049;SDS011;2039;50.894;6.888;2023-02-28T12:14:51;67.40;;;6.07;;
4049;SDS011;2039;50.894;6.888;2023-02-28T12:29:01;65.38;;;4.95;;
4049;SDS011;2039;50.894;6.888;2023-02-28T12:31:41;66.57;;;5.53;;
4049;SDS011;2039;50.894;6.888;2023-02-28T12:34:31;65.70;;;5.75;;
4049;SDS011;2039;50.894;6.888;2023-02-28T12:37:02;66.45;;;5.75;;
4049;SDS011;2039;50.894;6.888;2023-02-28T12:39:34;65.90;;;5.50;;
4049;SDS011;2039;50.894;6.888;2023-02-28T12:42:13;65.80;;;6.00;;
4049;SDS011;2039;50.894;6.888;2023-02-28T12:44:49;67.97;;;6.20;;
4049;SDS011;2039;50.894;6.888;2023-02-28T12:47:19;65.00;;;5.72;;
4049;SDS011;2039;50.894;6.888;2023-02-28T12:52:54;66.93;;;5.80;;
4049;SDS011;2039;50.894;6.888;2023-02-28T13:00:36;66.30;;;5.80;;
4049;SDS011;2039;50.894;6.888;2023-02-28T13:08:49;65.97;;;5.35;;
4049;SDS011;2039;50.894;6.888;2023-02-28T13:14:14;69.60;;;6.20;;
4049;SDS011;2039;50.894;6.888;2023-02-28T13:19:20;65.75;;;5.93;;
4049;SDS011;2039;50.894;6.888;2023-02-28T13:21:49;66.65;;;6.55;;
4049;SDS011;2039;50.894;6.888;2023-02-28T13:29:38;66.13;;;6.93;;
4049;SDS011;2039;50.894;6.888;2023-02-28T13:47:30;69.85;;;6.15;;
4049;SDS011;2039;50.894;6.888;2023-02-28T14:04:03;66.03;;;6.40;;
4049;SDS011;2039;50.894;6.888;2023-02-28T14:06:46;72.70;;;6.57;;
4049;SDS011;2039;50.894;6.888;2023-02-28T14:11:51;68.10;;;6.57;;
4049;SDS011;2039;50.894;6.888;2023-02-28T14:17:06;66.47;;;6.75;;
4049;SDS011;2039;50.894;6.888;2023-02-28T14:19:37;67.72;;;8.63;;
4049;SDS011;2039;50.894;6.888;2023-02-28T14:27:56;67.05;;;6.38;;
4049;SDS011;2039;50.894;6.888;2023-02-28T14:33:31;69.50;;;6.95;;
4049;SDS011;2039;50.894;6.888;2023-02-28T14:36:20;66.35;;;6.32;;
4049;SDS011;2039;50.894;6.888;2023-02-28T14:38:51;70.30;;;6.95;;
4049;SDS011;2039;50.894;6.888;2023-02-28T14:41:33;70.95;;;6.43;;
4049;SDS011;2039;50.894;6.888;2023-02-28T14:44:20;68.05;;;7.28;;
4049;SDS011;2039;50.894;6.888;2023-02-28T14:47:11;66.30;;;6.57;;
4049;SDS011;2039;50.894;6.888;2023-02-28T14:49:43;66.38;;;6.22;;
4049;SDS011;2039;50.894;6.888;2023-02-28T14:52:15;67.47;;;6.35;;
4049;SDS011;2039;50.894;6.888;2023-02-28T14:54:44;68.40;;;7.38;;
4049;SDS011;2039;50.894;6.888;2023-02-28T14:57:32;67.55;;;7.45;;
4049;SDS011;2039;50.894;6.888;2023-02-28T15:02:39;66.43;;;6.53;;
4049;SDS011;2039;50.894;6.888;2023-02-28T15:05:16;66.88;;;6.38;;
4049;SDS011;2039;50.894;6.888;2023-02-28T15:08:01;71.47;;;6.95;;
4049;SDS011;2039;50.894;6.888;2023-02-28T15:10:36;67.10;;;6.80;;
4049;SDS011;2039;50.894;6.888;2023-02-28T15:13:07;66.20;;;6.20;;
4049;SDS011;2039;50.894;6.888;2023-02-28T15:19:00;66.25;;;6.55;;
4049;SDS011;2039;50.894;6.888;2023-02-28T15:21:13;66.95;;;6.53;;
4049;SDS011;2039;50.894;6.888;2023-02-28T15:23:42;67.18;;;6.90;;
4049;SDS011;2039;50.894;6.888;2023-02-28T15:26:14;67.78;;;6.75;;
4049;SDS011;2039;50.894;6.888;2023-02-28T15:28:42;66.47;;;7.18;;
4049;SDS011;2039;50.894;6.888;2023-02-28T15:31:19;67.07;;;6.05;;
4049;SDS011;2039;50.894;6.888;2023-02-28T15:34:02;67.72;;;7.05;;
4049;SDS011;2039;50.894;6.888;2023-02-28T15:36:30;67.70;;;7.25;;
4049;SDS011;2039;50.894;6.888;2023-02-28T15:38:58;69.72;;;6.72;;
4049;SDS011;2039;50.894;6.888;2023-02-28T15:41:26;68.05;;;7.05;;
4049;SDS011;2039;50.894;6.888;2023-02-28T15:47:14;66.93;;;6.15;;
4049;SDS011;2039;50.894;6.888;2023-02-28T15:52:21;67.28;;;6.38;;
4049;SDS011;2039;50.894;6.888;2023-02-28T15:55:27;69.60;;;6.88;;
4049;SDS011;2039;50.894;6.888;2023-02-28T15:57:55;68.22;;;6.88;;
4049;SDS011;2039;50.894;6.888;2023-02-28T16:00:26;66.90;;;5.57;;
4049;SDS011;2039;50.894;6.888;2023-02-28T16:02:58;67.82;;;6.50;;
4049;SDS011;2039;50.894;6.888;2023-02-28T16:05:25;69.05;;;7.47;;
4049;SDS011;2039;50.894;6.888;2023-02-28T16:08:06;67.60;;;6.43;;
4049;SDS011;2039;50.894;6.888;2023-02-28T16:10:41;67.22;;;7.00;;
4049;SDS011;2039;50.894;6.888;2023-02-28T16:13:08;67.07;;;6.67;;
4049;SDS011;2039;50.894;6.888;2023-02-28T16:15:37;68.15;;;7.63;;
4049;SDS011;2039;50.894;6.888;2023-02-28T16:18:07;75.63;;;6.45;;
4049;SDS011;2039;50.894;6.888;2023-02-28T16:20:36;67.75;;;6.63;;
4049;SDS011;2039;50.894;6.888;2023-02-28T16:23:05;68.05;;;6.47;;
4049;SDS011;2039;50.894;6.888;2023-02-28T16:25:35;66.43;;;6.07;;
4049;SDS011;2039;50.894;6.888;2023-02-28T16:28:20;66.88;;;6.05;;
4049;SDS011;2039;50.894;6.888;2023-02-28T16:30:54;67.15;;;5.95;;
4049;SDS011;2039;50.894;6.888;2023-02-28T16:33:20;68.93;;;6.30;;
4049;SDS011;2039;50.894;6.888;2023-02-28T16:35:46;67.70;;;7.10;;
4049;SDS011;2039;50.894;6.888;2023-02-28T16:38:12;67.70;;;6.50;;
4049;SDS011;2039;50.894;6.888;2023-02-28T16:40:40;69.10;;;7.10;;
4049;SDS011;2039;50.894;6.888;2023-02-28T16:43:16;67.47;;;6.93;;
4049;SDS011;2039;50.894;6.888;2023-02-28T16:45:46;69.82;;;8.20;;
4049;SDS011;2039;50.894;6.888;2023-02-28T16:48:13;69.82;;;7.68;;
4049;SDS011;2039;50.894;6.888;2023-02-28T16:50:40;70.93;;;6.70;;
4049;SDS011;2039;50.894;6.888;2023-02-28T16:53:09;66.00;;;6.25;;
4049;SDS011;2039;50.894;6.888;2023-02-28T16:55:35;67.60;;;6.40;;
4049;SDS011;2039;50.894;6.888;2023-02-28T16:58:02;66.18;;;6.15;;
4049;SDS011;2039;50.894;6.888;2023-02-28T17:00:30;66.38;;;6.50;;
4049;SDS011;2039;50.894;6.888;2023-02-28T17:03:57;68.85;;;7.45;;
4049;SDS011;2039;50.894;6.888;2023-02-28T17:05:58;67.00;;;6.93;;
4049;SDS011;2039;50.894;6.888;2023-02-28T17:08:30;71.50;;;7.13;;
4049;SDS011;2039;50.894;6.888;2023-02-28T17:10:57;69.05;;;6.78;;
4049;SDS011;2039;50.894;6.888;2023-02-28T17:13:24;69.70;;;6.72;;
4049;SDS011;2039;50.894;6.888;2023-02-28T17:15:52;67.85;;;7.03;;
4049;SDS011;2039;50.894;6.888;2023-02-28T17:18:18;66.50;;;6.67;;
4049;SDS011;2039;50.894;6.888;2023-02-28T17:20:46;69.80;;;7.72;;
4049;SDS011;2039;50.894;6.888;2023-02-28T17:23:12;67.97;;;6.40;;
4049;SDS011;2039;50.894;6.888;2023-02-28T17:25:38;71.40;;;8.23;;
4049;SDS011;2039;50.894;6.888;2023-02-28T17:28:19;66.93;;;6.10;;
4049;SDS011;2039;50.894;6.888;2023-02-28T17:30:46;68.35;;;6.55;;
4049;SDS011;2039;50.894;6.888;2023-02-28T17:33:33;67.50;;;6.90;;
4049;SDS011;2039;50.894;6.888;2023-02-28T17:36:05;74.63;;;7.45;;
4049;SDS011;2039;50.894;6.888;2023-02-28T17:38:37;70.57;;;7.18;;
4049;SDS011;2039;50.894;6.888;2023-02-28T17:41:12;69.68;;;7.20;;
4049;SDS011;2039;50.894;6.888;2023-02-28T17:43:44;67.80;;;7.30;;
4049;SDS011;2039;50.894;6.888;2023-02-28T17:46:25;69.10;;;7.07;;
4049;SDS011;2039;50.894;6.888;2023-02-28T17:49:05;69.15;;;7.20;;
4049;SDS011;2039;50.894;6.888;2023-02-28T17:51:34;69.18;;;7.47;;
4049;SDS011;2039;50.894;6.888;2023-02-28T17:54:02;68.55;;;7.50;;
4049;SDS011;2039;50.894;6.888;2023-02-28T17:57:26;69.43;;;6.88;;
4049;SDS011;2039;50.894;6.888;2023-02-28T18:04:05;67.25;;;6.28;;
4049;SDS011;2039;50.894;6.888;2023-02-28T18:06:40;66.88;;;6.47;;
4049;SDS011;2039;50.894;6.888;2023-02-28T18:09:31;67.85;;;7.22;;
4049;SDS011;2039;50.894;6.888;2023-02-28T18:12:47;67.65;;;7.43;;
4049;SDS011;2039;50.894;6.888;2023-02-28T18:15:24;69.68;;;7.00;;
4049;SDS011;2039;50.894;6.888;2023-02-28T18:17:58;72.40;;;7.03;;
4049;SDS011;2039;50.894;6.888;2023-02-28T18:20:37;68.82;;;7.10;;
4049;SDS011;2039;50.894;6.888;2023-02-28T18:26:00;71.28;;;7.03;;
4049;SDS011;2039;50.894;6.888;2023-02-28T18:28:51;68.38;;;6.95;;
4049;SDS011;2039;50.894;6.888;2023-02-28T18:31:55;71.68;;;6.72;;
4049;SDS011;2039;50.894;6.888;2023-02-28T18:34:36;72.05;;;8.27;;
4049;SDS011;2039;50.894;6.888;2023-02-28T18:37:17;71.55;;;8.70;;
4049;SDS011;2039;50.894;6.888;2023-02-28T18:39:43;72.05;;;11.48;;
4049;SDS011;2039;50.894;6.888;2023-02-28T18:42:14;70.68;;;7.20;;
4049;SDS011;2039;50.894;6.888;2023-02-28T18:44:43;67.95;;;7.20;;
4049;SDS011;2039;50.894;6.888;2023-02-28T18:47:35;69.82;;;7.20;;
4049;SDS011;2039;50.894;6.888;2023-02-28T18:50:03;68.90;;;7.70;;
4049;SDS011;2039;50.894;6.888;2023-02-28T18:52:40;73.03;;;8.50;;
4049;SDS011;2039;50.894;6.888;2023-02-28T18:55:25;70.60;;;8.07;;
4049;SDS011;2039;50.894;6.888;2023-02-28T18:57:56;70.72;;;8.57;;
4049;SDS011;2039;50.894;6.888;2023-02-28T19:00:22;69.00;;;9.10;;
4049;SDS011;2039;50.894;6.888;2023-02-28T19:05:48;70.95;;;9.77;;
4049;SDS011;2039;50.894;6.888;2023-02-28T19:08:18;70.78;;;10.60;;
4049;SDS011;2039;50.894;6.888;2023-02-28T19:11:12;71.25;;;10.88;;
4049;SDS011;2039;50.894;6.888;2023-02-28T19:13:42;73.38;;;9.52;;